sensor_id;sensor_type;location;lat;lon;timestamp;temperature;humidity
67769;DHT22;54569;52.018;5.584;2023-05-07T00:00:22;15.90;78.80
67769;DHT22;54569;52.018;5.584;2023-05-07T00:02:48;15.90;78.80
67769;DHT22;54569;52.018;5.584;2023-05-07T00:05:14;15.90;79.00
67769;DHT22;54569;52.018;5.584;2023-05-07T00:07:40;15.90;79.00
67769;DHT22;54569;52.018;5.584;2023-05-07T00:10:06;15.90;79.10
67769;DHT22;54569;52.018;5.584;2023-05-07T00:12:32;15.80;79.00
67769;DHT22;54569;52.018;5.584;2023-05-07T00:15:03;15.90;79.30
67769;DHT22;54569;52.018;5.584;2023-05-07T00:17:29;15.80;79.20
67769;DHT22;54569;52.018;5.584;2023-05-07T00:19:55;15.80;79.30
67769;DHT22;54569;52.018;5.584;2023-05-07T00:22:21;15.80;79.30
67769;DHT22;54569;52.018;5.584;2023-05-07T00:24:46;15.90;79.40
67769;DHT22;54569;52.018;5.584;2023-05-07T00:27:12;15.90;79.40
67769;DHT22;54569;52.018;5.584;2023-05-07T00:29:40;15.80;79.30
67769;DHT22;54569;52.018;5.584;2023-05-07T00:32:05;15.80;79.40
67769;DHT22;54569;52.018;5.584;2023-05-07T00:34:31;15.80;79.60
67769;DHT22;54569;52.018;5.584;2023-05-07T00:36:57;15.80;79.60
67769;DHT22;54569;52.018;5.584;2023-05-07T00:39:22;15.70;79.60
67769;DHT22;54569;52.018;5.584;2023-05-07T00:41:48;15.70;79.70
67769;DHT22;54569;52.018;5.584;2023-05-07T00:44:14;15.70;79.80
67769;DHT22;54569;52.018;5.584;2023-05-07T00:46:40;15.60;80.10
67769;DHT22;54569;52.018;5.584;2023-05-07T00:49:06;15.60;80.00
67769;DHT22;54569;52.018;5.584;2023-05-07T00:51:33;15.60;80.10
67769;DHT22;54569;52.018;5.584;2023-05-07T00:54:01;15.60;80.10
67769;DHT22;54569;52.018;5.584;2023-05-07T00:56:27;15.60;80.20
67769;DHT22;54569;52.018;5.584;2023-05-07T00:58:53;15.60;80.20
67769;DHT22;54569;52.018;5.584;2023-05-07T01:01:19;15.60;80.30
67769;DHT22;54569;52.018;5.584;2023-05-07T01:03:45;15.60;80.20
67769;DHT22;54569;52.018;5.584;2023-05-07T01:06:12;15.60;80.30
67769;DHT22;54569;52.018;5.584;2023-05-07T01:08:39;15.60;80.20
67769;DHT22;54569;52.018;5.584;2023-05-07T01:11:07;15.60;80.40
67769;DHT22;54569;52.018;5.584;2023-05-07T01:13:34;15.50;80.30
67769;DHT22;54569;52.018;5.584;2023-05-07T01:16:02;15.50;80.40
67769;DHT22;54569;52.018;5.584;2023-05-07T01:18:28;15.50;80.50
67769;DHT22;54569;52.018;5.584;2023-05-07T01:20:57;15.50;80.40
67769;DHT22;54569;52.018;5.584;2023-05-07T01:23:24;15.50;80.50
67769;DHT22;54569;52.018;5.584;2023-05-07T01:25:52;15.60;80.50
67769;DHT22;54569;52.018;5.584;2023-05-07T01:28:18;15.60;80.50
67769;DHT22;54569;52.018;5.584;2023-05-07T01:30:49;15.60;80.30
67769;DHT22;54569;52.018;5.584;2023-05-07T01:33:20;15.60;80.40
67769;DHT22;54569;52.018;5.584;2023-05-07T01:35:53;15.60;80.40
67769;DHT22;54569;52.018;5.584;2023-05-07T01:38:19;15.60;80.40
67769;DHT22;54569;52.018;5.584;2023-05-07T01:40:46;15.50;80.50
67769;DHT22;54569;52.018;5.584;2023-05-07T01:43:13;15.60;81.30
67769;DHT22;54569;52.018;5.584;2023-05-07T01:45:39;15.60;80.70
67769;DHT22;54569;52.018;5.584;2023-05-07T01:48:07;15.60;80.60
67769;DHT22;54569;52.018;5.584;2023-05-07T01:50:34;15.60;80.90
67769;DHT22;54569;52.018;5.584;2023-05-07T01:53:01;15.60;80.70
67769;DHT22;54569;52.018;5.584;2023-05-07T01:55:28;15.60;80.70
67769;DHT22;54569;52.018;5.584;2023-05-07T01:57:53;15.60;80.80
67769;DHT22;54569;52.018;5.584;2023-05-07T02:00:19;15.60;80.70
67769;DHT22;54569;52.018;5.584;2023-05-07T02:02:45;15.60;80.70
67769;DHT22;54569;52.018;5.584;2023-05-07T02:05:23;15.60;80.90
67769;DHT22;54569;52.018;5.584;2023-05-07T02:07:56;15.60;80.80
67769;DHT22;54569;52.018;5.584;2023-05-07T02:10:22;15.60;80.60
67769;DHT22;54569;52.018;5.584;2023-05-07T02:12:47;15.60;80.70
67769;DHT22;54569;52.018;5.584;2023-05-07T02:15:13;15.60;80.80
67769;DHT22;54569;52.018;5.584;2023-05-07T02:17:58;15.60;80.70
67769;DHT22;54569;52.018;5.584;2023-05-07T02:20:24;15.60;80.80
67769;DHT22;54569;52.018;5.584;2023-05-07T02:22:50;15.60;81.00
67769;DHT22;54569;52.018;5.584;2023-05-07T02:25:16;15.60;80.90
67769;DHT22;54569;52.018;5.584;2023-05-07T02:27:41;15.60;80.90
67769;DHT22;54569;52.018;5.584;2023-05-07T02:30:07;15.60;81.00
67769;DHT22;54569;52.018;5.584;2023-05-07T02:32:33;15.60;81.00
67769;DHT22;54569;52.018;5.584;2023-05-07T02:34:59;15.60;81.10
67769;DHT22;54569;52.018;5.584;2023-05-07T02:37:25;15.60;81.00
67769;DHT22;54569;52.018;5.584;2023-05-07T02:39:50;15.70;81.00
67769;DHT22;54569;52.018;5.584;2023-05-07T02:42:16;15.70;81.10
67769;DHT22;54569;52.018;5.584;2023-05-07T02:44:42;15.60;81.00
67769;DHT22;54569;52.018;5.584;2023-05-07T02:47:07;15.60;81.20
67769;DHT22;54569;52.018;5.584;2023-05-07T02:49:35;15.60;81.40
67769;DHT22;54569;52.018;5.584;2023-05-07T02:52:02;15.60;81.60
67769;DHT22;54569;52.018;5.584;2023-05-07T02:54:27;15.60;81.60
67769;DHT22;54569;52.018;5.584;2023-05-07T02:56:53;15.60;81.50
67769;DHT22;54569;52.018;5.584;2023-05-07T02:59:19;15.60;81.60
67769;DHT22;54569;52.018;5.584;2023-05-07T03:01:44;15.60;81.50
67769;DHT22;54569;52.018;5.584;2023-05-07T03:04:11;15.60;81.60
67769;DHT22;54569;52.018;5.584;2023-05-07T03:06:37;15.50;81.70
67769;DHT22;54569;52.018;5.584;2023-05-07T03:09:03;15.50;81.70
67769;DHT22;54569;52.018;5.584;2023-05-07T03:11:29;15.50;81.80
67769;DHT22;54569;52.018;5.584;2023-05-07T03:13:55;15.50;81.90
67769;DHT22;54569;52.018;5.584;2023-05-07T03:16:21;15.50;82.00
67769;DHT22;54569;52.018;5.584;2023-05-07T03:18:47;15.50;82.00
67769;DHT22;54569;52.018;5.584;2023-05-07T03:21:13;15.50;82.00
67769;DHT22;54569;52.018;5.584;2023-05-07T03:23:38;15.50;81.90
67769;DHT22;54569;52.018;5.584;2023-05-07T03:26:04;15.50;82.10
67769;DHT22;54569;52.018;5.584;2023-05-07T03:28:30;15.50;82.00
67769;DHT22;54569;52.018;5.584;2023-05-07T03:31:00;15.50;81.90
67769;DHT22;54569;52.018;5.584;2023-05-07T03:33:26;15.50;81.90
67769;DHT22;54569;52.018;5.584;2023-05-07T03:35:53;15.40;82.00
67769;DHT22;54569;52.018;5.584;2023-05-07T03:38:22;15.50;81.90
67769;DHT22;54569;52.018;5.584;2023-05-07T03:40:48;15.40;81.80
67769;DHT22;54569;52.018;5.584;2023-05-07T03:43:15;15.30;82.00
67769;DHT22;54569;52.018;5.584;2023-05-07T03:45:45;15.30;82.00
67769;DHT22;54569;52.018;5.584;2023-05-07T03:48:19;15.30;82.20
67769;DHT22;54569;52.018;5.584;2023-05-07T03:50:46;15.30;82.50
67769;DHT22;54569;52.018;5.584;2023-05-07T03:53:13;15.20;82.50
67769;DHT22;54569;52.018;5.584;2023-05-07T03:55:39;15.20;82.40
67769;DHT22;54569;52.018;5.584;2023-05-07T03:58:05;15.20;82.50
67769;DHT22;54569;52.018;5.584;2023-05-07T04:00:31;15.30;82.60
67769;DHT22;54569;52.018;5.584;2023-05-07T04:02:59;15.30;82.50
67769;DHT22;54569;52.018;5.584;2023-05-07T04:05:28;15.30;82.50
67769;DHT22;54569;52.018;5.584;2023-05-07T04:07:58;15.30;82.50
67769;DHT22;54569;52.018;5.584;2023-05-07T04:10:30;15.40;82.40
67769;DHT22;54569;52.018;5.584;2023-05-07T04:12:57;15.40;82.40
67769;DHT22;54569;52.018;5.584;2023-05-07T04:15:24;15.40;82.20
67769;DHT22;54569;52.018;5.584;2023-05-07T04:17:50;15.40;82.10
67769;DHT22;54569;52.018;5.584;2023-05-07T04:20:18;15.40;82.10
67769;DHT22;54569;52.018;5.584;2023-05-07T04:22:49;15.40;82.10
67769;DHT22;54569;52.018;5.584;2023-05-07T04:25:16;15.40;82.00
67769;DHT22;54569;52.018;5.584;2023-05-07T04:27:42;15.40;82.60
67769;DHT22;54569;52.018;5.584;2023-05-07T04:30:08;15.40;82.00
67769;DHT22;54569;52.018;5.584;2023-05-07T04:32:38;15.40;82.10
67769;DHT22;54569;52.018;5.584;2023-05-07T04:35:05;15.40;82.10
67769;DHT22;54569;52.018;5.584;2023-05-07T04:37:32;15.50;81.90
67769;DHT22;54569;52.018;5.584;2023-05-07T04:39:58;15.40;81.90
67769;DHT22;54569;52.018;5.584;2023-05-07T04:42:24;15.40;82.00
67769;DHT22;54569;52.018;5.584;2023-05-07T04:44:53;15.40;82.00
67769;DHT22;54569;52.018;5.584;2023-05-07T04:47:19;15.40;82.00
67769;DHT22;54569;52.018;5.584;2023-05-07T04:49:44;15.40;82.00
67769;DHT22;54569;52.018;5.584;2023-05-07T04:52:11;15.40;82.10
67769;DHT22;54569;52.018;5.584;2023-05-07T04:54:37;15.40;82.00
67769;DHT22;54569;52.018;5.584;2023-05-07T04:57:06;15.40;82.00
67769;DHT22;54569;52.018;5.584;2023-05-07T04:59:32;15.40;82.30
67769;DHT22;54569;52.018;5.584;2023-05-07T05:01:58;15.40;82.10
67769;DHT22;54569;52.018;5.584;2023-05-07T05:04:24;15.40;82.00
67769;DHT22;54569;52.018;5.584;2023-05-07T05:06:50;15.50;82.10
67769;DHT22;54569;52.018;5.584;2023-05-07T05:09:16;15.50;82.10
67769;DHT22;54569;52.018;5.584;2023-05-07T05:11:42;15.60;82.00
67769;DHT22;54569;52.018;5.584;2023-05-07T05:14:09;15.50;81.90
67769;DHT22;54569;52.018;5.584;2023-05-07T05:16:34;15.60;81.90
67769;DHT22;54569;52.018;5.584;2023-05-07T05:19:02;15.60;81.70
67769;DHT22;54569;52.018;5.584;2023-05-07T05:21:30;15.60;81.90
67769;DHT22;54569;52.018;5.584;2023-05-07T05:24:01;15.70;81.90
67769;DHT22;54569;52.018;5.584;2023-05-07T05:26:27;15.60;81.90
67769;DHT22;54569;52.018;5.584;2023-05-07T05:28:53;15.60;81.80
67769;DHT22;54569;52.018;5.584;2023-05-07T05:31:20;15.60;81.90
67769;DHT22;54569;52.018;5.584;2023-05-07T05:33:48;15.70;81.90
67769;DHT22;54569;52.018;5.584;2023-05-07T05:36:14;15.60;82.10
67769;DHT22;54569;52.018;5.584;2023-05-07T05:38:41;15.60;82.10
67769;DHT22;54569;52.018;5.584;2023-05-07T05:41:08;15.60;82.10
67769;DHT22;54569;52.018;5.584;2023-05-07T05:43:35;15.60;82.10
67769;DHT22;54569;52.018;5.584;2023-05-07T05:46:00;15.60;82.40
67769;DHT22;54569;52.018;5.584;2023-05-07T05:48:26;15.60;82.20
67769;DHT22;54569;52.018;5.584;2023-05-07T05:50:52;15.60;82.40
67769;DHT22;54569;52.018;5.584;2023-05-07T05:53:18;15.60;82.40
67769;DHT22;54569;52.018;5.584;2023-05-07T05:55:45;15.70;82.40
67769;DHT22;54569;52.018;5.584;2023-05-07T05:58:11;15.60;82.50
67769;DHT22;54569;52.018;5.584;2023-05-07T06:00:42;15.60;82.40
67769;DHT22;54569;52.018;5.584;2023-05-07T06:03:08;15.60;82.70
67769;DHT22;54569;52.018;5.584;2023-05-07T06:05:35;15.60;82.70
67769;DHT22;54569;52.018;5.584;2023-05-07T06:08:00;15.60;82.70
67769;DHT22;54569;52.018;5.584;2023-05-07T06:10:30;15.60;82.70
67769;DHT22;54569;52.018;5.584;2023-05-07T06:12:57;15.60;82.90
67769;DHT22;54569;52.018;5.584;2023-05-07T06:15:23;15.60;83.10
67769;DHT22;54569;52.018;5.584;2023-05-07T06:17:49;15.60;82.90
67769;DHT22;54569;52.018;5.584;2023-05-07T06:20:15;15.60;83.10
67769;DHT22;54569;52.018;5.584;2023-05-07T06:22:41;15.60;83.00
67769;DHT22;54569;52.018;5.584;2023-05-07T06:25:08;15.70;82.90
67769;DHT22;54569;52.018;5.584;2023-05-07T06:27:34;15.70;83.10
67769;DHT22;54569;52.018;5.584;2023-05-07T06:30:00;15.70;83.00
67769;DHT22;54569;52.018;5.584;2023-05-07T06:32:26;15.70;83.20
67769;DHT22;54569;52.018;5.584;2023-05-07T06:34:52;15.80;83.20
67769;DHT22;54569;52.018;5.584;2023-05-07T06:37:18;15.80;83.30
67769;DHT22;54569;52.018;5.584;2023-05-07T06:39:55;15.90;83.20
67769;DHT22;54569;52.018;5.584;2023-05-07T06:42:21;15.90;83.00
67769;DHT22;54569;52.018;5.584;2023-05-07T06:44:49;16.00;83.00
67769;DHT22;54569;52.018;5.584;2023-05-07T06:47:16;16.10;82.80
67769;DHT22;54569;52.018;5.584;2023-05-07T06:49:44;16.20;82.80
67769;DHT22;54569;52.018;5.584;2023-05-07T06:52:13;16.20;82.80
67769;DHT22;54569;52.018;5.584;2023-05-07T06:54:39;16.30;82.60
67769;DHT22;54569;52.018;5.584;2023-05-07T06:57:05;16.30;82.60
67769;DHT22;54569;52.018;5.584;2023-05-07T06:59:31;16.40;82.40
67769;DHT22;54569;52.018;5.584;2023-05-07T07:01:58;16.40;82.30
67769;DHT22;54569;52.018;5.584;2023-05-07T07:04:24;16.40;82.30
67769;DHT22;54569;52.018;5.584;2023-05-07T07:06:58;16.50;82.50
67769;DHT22;54569;52.018;5.584;2023-05-07T07:09:24;16.50;82.60
67769;DHT22;54569;52.018;5.584;2023-05-07T07:11:50;16.50;82.40
67769;DHT22;54569;52.018;5.584;2023-05-07T07:14:16;16.60;82.20
67769;DHT22;54569;52.018;5.584;2023-05-07T07:16:48;16.60;82.30
67769;DHT22;54569;52.018;5.584;2023-05-07T07:19:16;16.60;82.30
67769;DHT22;54569;52.018;5.584;2023-05-07T07:21:42;16.60;82.70
67769;DHT22;54569;52.018;5.584;2023-05-07T07:24:10;16.60;82.60
67769;DHT22;54569;52.018;5.584;2023-05-07T07:26:36;16.60;82.70
67769;DHT22;54569;52.018;5.584;2023-05-07T07:29:02;16.60;82.40
67769;DHT22;54569;52.018;5.584;2023-05-07T07:31:28;16.70;82.50
67769;DHT22;54569;52.018;5.584;2023-05-07T07:33:54;16.60;82.20
67769;DHT22;54569;52.018;5.584;2023-05-07T07:36:20;16.60;82.60
67769;DHT22;54569;52.018;5.584;2023-05-07T07:38:46;16.60;82.60
67769;DHT22;54569;52.018;5.584;2023-05-07T07:41:13;16.60;82.90
67769;DHT22;54569;52.018;5.584;2023-05-07T07:43:39;16.50;82.90
67769;DHT22;54569;52.018;5.584;2023-05-07T07:46:05;16.50;83.20
67769;DHT22;54569;52.018;5.584;2023-05-07T07:48:33;16.50;83.10
67769;DHT22;54569;52.018;5.584;2023-05-07T07:50:59;16.50;83.40
67769;DHT22;54569;52.018;5.584;2023-05-07T07:53:24;16.50;83.30
67769;DHT22;54569;52.018;5.584;2023-05-07T07:55:51;16.60;83.40
67769;DHT22;54569;52.018;5.584;2023-05-07T07:58:19;16.60;82.90
67769;DHT22;54569;52.018;5.584;2023-05-07T08:00:46;16.70;83.00
67769;DHT22;54569;52.018;5.584;2023-05-07T08:03:12;16.70;83.00
67769;DHT22;54569;52.018;5.584;2023-05-07T08:05:43;16.60;83.00
67769;DHT22;54569;52.018;5.584;2023-05-07T08:08:08;16.70;83.10
67769;DHT22;54569;52.018;5.584;2023-05-07T08:10:37;16.80;83.00
67769;DHT22;54569;52.018;5.584;2023-05-07T08:13:09;16.90;82.80
67769;DHT22;54569;52.018;5.584;2023-05-07T08:15:36;16.90;82.60
67769;DHT22;54569;52.018;5.584;2023-05-07T08:18:03;17.10;82.50
67769;DHT22;54569;52.018;5.584;2023-05-07T08:20:29;17.30;82.10
67769;DHT22;54569;52.018;5.584;2023-05-07T08:22:56;17.40;81.50
67769;DHT22;54569;52.018;5.584;2023-05-07T08:25:22;17.50;81.30
67769;DHT22;54569;52.018;5.584;2023-05-07T08:27:48;17.60;81.10
67769;DHT22;54569;52.018;5.584;2023-05-07T08:30:15;17.50;81.10
67769;DHT22;54569;52.018;5.584;2023-05-07T08:32:41;17.60;81.50
67769;DHT22;54569;52.018;5.584;2023-05-07T08:35:07;17.60;81.20
67769;DHT22;54569;52.018;5.584;2023-05-07T08:37:32;17.60;81.20
67769;DHT22;54569;52.018;5.584;2023-05-07T08:40:00;17.60;81.30
67769;DHT22;54569;52.018;5.584;2023-05-07T08:42:31;17.60;81.40
67769;DHT22;54569;52.018;5.584;2023-05-07T08:45:02;17.60;81.20
67769;DHT22;54569;52.018;5.584;2023-05-07T08:47:44;17.70;81.30
67769;DHT22;54569;52.018;5.584;2023-05-07T08:50:11;17.80;81.80
67769;DHT22;54569;52.018;5.584;2023-05-07T08:52:39;17.80;81.10
67769;DHT22;54569;52.018;5.584;2023-05-07T08:55:06;18.00;80.80
67769;DHT22;54569;52.018;5.584;2023-05-07T08:57:32;18.10;80.40
67769;DHT22;54569;52.018;5.584;2023-05-07T08:59:58;18.30;80.10
67769;DHT22;54569;52.018;5.584;2023-05-07T09:02:24;18.70;79.00
67769;DHT22;54569;52.018;5.584;2023-05-07T09:04:50;19.00;78.10
67769;DHT22;54569;52.018;5.584;2023-05-07T09:07:16;19.20;77.30
67769;DHT22;54569;52.018;5.584;2023-05-07T09:09:44;19.40;76.60
67769;DHT22;54569;52.018;5.584;2023-05-07T09:12:11;19.70;76.20
67769;DHT22;54569;52.018;5.584;2023-05-07T09:14:36;20.00;75.30
67769;DHT22;54569;52.018;5.584;2023-05-07T09:17:03;20.20;74.60
67769;DHT22;54569;52.018;5.584;2023-05-07T09:19:30;20.50;73.70
67769;DHT22;54569;52.018;5.584;2023-05-07T09:22:03;20.80;73.20
67769;DHT22;54569;52.018;5.584;2023-05-07T09:24:38;21.00;72.60
67769;DHT22;54569;52.018;5.584;2023-05-07T09:27:07;21.40;71.90
67769;DHT22;54569;52.018;5.584;2023-05-07T09:29:34;21.60;71.30
67769;DHT22;54569;52.018;5.584;2023-05-07T09:32:07;21.80;70.60
67769;DHT22;54569;52.018;5.584;2023-05-07T09:34:34;22.00;70.70
67769;DHT22;54569;52.018;5.584;2023-05-07T09:37:02;22.30;70.00
67769;DHT22;54569;52.018;5.584;2023-05-07T09:39:42;22.30;70.00
67769;DHT22;54569;52.018;5.584;2023-05-07T09:42:09;22.40;69.50
67769;DHT22;54569;52.018;5.584;2023-05-07T09:44:38;22.40;70.20
67769;DHT22;54569;52.018;5.584;2023-05-07T09:47:08;22.40;70.00
67769;DHT22;54569;52.018;5.584;2023-05-07T09:49:40;22.40;69.90
67769;DHT22;54569;52.018;5.584;2023-05-07T09:52:10;22.50;69.80
67769;DHT22;54569;52.018;5.584;2023-05-07T09:54:41;22.50;69.40
67769;DHT22;54569;52.018;5.584;2023-05-07T09:57:10;22.60;69.30
67769;DHT22;54569;52.018;5.584;2023-05-07T09:59:38;22.70;69.20
67769;DHT22;54569;52.018;5.584;2023-05-07T10:02:09;22.70;69.10
67769;DHT22;54569;52.018;5.584;2023-05-07T10:04:43;22.60;69.20
67769;DHT22;54569;52.018;5.584;2023-05-07T10:07:10;22.60;68.90
67769;DHT22;54569;52.018;5.584;2023-05-07T10:09:36;22.50;68.80
67769;DHT22;54569;52.018;5.584;2023-05-07T10:12:06;22.40;69.00
67769;DHT22;54569;52.018;5.584;2023-05-07T10:14:33;22.30;69.10
67769;DHT22;54569;52.018;5.584;2023-05-07T10:17:00;22.30;68.60
67769;DHT22;54569;52.018;5.584;2023-05-07T10:19:28;22.30;68.50
67769;DHT22;54569;52.018;5.584;2023-05-07T10:22:01;22.40;68.40
67769;DHT22;54569;52.018;5.584;2023-05-07T10:24:33;22.70;67.80
67769;DHT22;54569;52.018;5.584;2023-05-07T10:27:09;22.80;66.70
67769;DHT22;54569;52.018;5.584;2023-05-07T10:30:07;22.70;66.60
67769;DHT22;54569;52.018;5.584;2023-05-07T10:32:43;22.50;66.10
67769;DHT22;54569;52.018;5.584;2023-05-07T10:35:20;22.30;67.30
67769;DHT22;54569;52.018;5.584;2023-05-07T10:37:48;22.20;67.90
67769;DHT22;54569;52.018;5.584;2023-05-07T10:40:15;22.10;68.10
67769;DHT22;54569;52.018;5.584;2023-05-07T10:42:56;22.10;68.00
67769;DHT22;54569;52.018;5.584;2023-05-07T10:45:23;22.20;67.10
67769;DHT22;54569;52.018;5.584;2023-05-07T10:48:14;22.20;67.50
67769;DHT22;54569;52.018;5.584;2023-05-07T10:50:43;22.30;66.20
67769;DHT22;54569;52.018;5.584;2023-05-07T10:58:52;22.50;65.60
67769;DHT22;54569;52.018;5.584;2023-05-07T11:01:52;22.60;65.80
67769;DHT22;54569;52.018;5.584;2023-05-07T11:04:23;22.70;64.60
67769;DHT22;54569;52.018;5.584;2023-05-07T11:07:28;23.00;65.00
67769;DHT22;54569;52.018;5.584;2023-05-07T11:10:00;23.10;63.30
67769;DHT22;54569;52.018;5.584;2023-05-07T11:12:55;23.10;64.50
67769;DHT22;54569;52.018;5.584;2023-05-07T11:15:39;23.00;64.60
67769;DHT22;54569;52.018;5.584;2023-05-07T11:18:14;23.10;64.70
67769;DHT22;54569;52.018;5.584;2023-05-07T11:21:07;22.90;64.40
67769;DHT22;54569;52.018;5.584;2023-05-07T11:23:55;22.80;64.60
67769;DHT22;54569;52.018;5.584;2023-05-07T11:26:29;22.80;65.10
67769;DHT22;54569;52.018;5.584;2023-05-07T11:28:55;22.70;65.00
67769;DHT22;54569;52.018;5.584;2023-05-07T11:31:27;22.70;64.70
67769;DHT22;54569;52.018;5.584;2023-05-07T11:33:57;22.90;65.00
67769;DHT22;54569;52.018;5.584;2023-05-07T11:36:24;23.10;64.10
67769;DHT22;54569;52.018;5.584;2023-05-07T11:38:53;23.40;64.10
67769;DHT22;54569;52.018;5.584;2023-05-07T11:41:18;23.90;63.40
67769;DHT22;54569;52.018;5.584;2023-05-07T11:43:59;24.20;62.60
67769;DHT22;54569;52.018;5.584;2023-05-07T11:46:27;24.60;61.70
67769;DHT22;54569;52.018;5.584;2023-05-07T11:48:53;25.00;61.80
67769;DHT22;54569;52.018;5.584;2023-05-07T11:51:20;25.10;60.80
67769;DHT22;54569;52.018;5.584;2023-05-07T11:53:46;25.20;60.90
67769;DHT22;54569;52.018;5.584;2023-05-07T11:56:14;25.40;60.70
67769;DHT22;54569;52.018;5.584;2023-05-07T11:58:41;25.40;60.30
67769;DHT22;54569;52.018;5.584;2023-05-07T12:01:08;25.40;60.60
67769;DHT22;54569;52.018;5.584;2023-05-07T12:03:36;25.10;60.90
67769;DHT22;54569;52.018;5.584;2023-05-07T12:06:05;24.90;61.10
67769;DHT22;54569;52.018;5.584;2023-05-07T12:08:31;24.90;61.30
67769;DHT22;54569;52.018;5.584;2023-05-07T12:10:57;24.90;60.90
67769;DHT22;54569;52.018;5.584;2023-05-07T12:13:24;24.90;60.90
67769;DHT22;54569;52.018;5.584;2023-05-07T12:15:53;24.80;60.80
67769;DHT22;54569;52.018;5.584;2023-05-07T12:18:20;24.60;60.60
67769;DHT22;54569;52.018;5.584;2023-05-07T12:20:46;24.40;61.30
67769;DHT22;54569;52.018;5.584;2023-05-07T12:23:12;24.20;61.70
67769;DHT22;54569;52.018;5.584;2023-05-07T12:25:39;24.10;62.10
67769;DHT22;54569;52.018;5.584;2023-05-07T12:28:08;24.00;61.70
67769;DHT22;54569;52.018;5.584;2023-05-07T12:30:38;24.00;61.70
67769;DHT22;54569;52.018;5.584;2023-05-07T12:33:04;24.00;61.70
67769;DHT22;54569;52.018;5.584;2023-05-07T12:35:31;24.20;61.40
67769;DHT22;54569;52.018;5.584;2023-05-07T12:37:58;24.30;60.70
67769;DHT22;54569;52.018;5.584;2023-05-07T12:40:52;24.40;60.30
67769;DHT22;54569;52.018;5.584;2023-05-07T12:43:25;24.40;59.80
67769;DHT22;54569;52.018;5.584;2023-05-07T12:45:53;24.60;59.80
67769;DHT22;54569;52.018;5.584;2023-05-07T12:48:20;24.70;59.70
67769;DHT22;54569;52.018;5.584;2023-05-07T12:50:57;24.70;59.60
67769;DHT22;54569;52.018;5.584;2023-05-07T12:53:25;24.90;58.90
67769;DHT22;54569;52.018;5.584;2023-05-07T12:55:56;24.90;59.30
67769;DHT22;54569;52.018;5.584;2023-05-07T12:58:30;24.90;58.40
67769;DHT22;54569;52.018;5.584;2023-05-07T13:00:59;24.80;58.10
67769;DHT22;54569;52.018;5.584;2023-05-07T13:03:33;24.80;58.20
67769;DHT22;54569;52.018;5.584;2023-05-07T13:06:05;24.80;57.50
67769;DHT22;54569;52.018;5.584;2023-05-07T13:10:59;24.80;57.90
67769;DHT22;54569;52.018;5.584;2023-05-07T13:13:31;24.80;57.80
67769;DHT22;54569;52.018;5.584;2023-05-07T13:15:57;24.60;57.80
67769;DHT22;54569;52.018;5.584;2023-05-07T13:18:25;24.60;57.70
67769;DHT22;54569;52.018;5.584;2023-05-07T13:20:51;24.50;57.90
67769;DHT22;54569;52.018;5.584;2023-05-07T13:23:17;24.50;58.00
67769;DHT22;54569;52.018;5.584;2023-05-07T13:25:42;24.50;58.00
67769;DHT22;54569;52.018;5.584;2023-05-07T13:28:08;24.50;57.90
67769;DHT22;54569;52.018;5.584;2023-05-07T13:30:34;24.40;57.80
67769;DHT22;54569;52.018;5.584;2023-05-07T13:33:00;24.40;57.90
67769;DHT22;54569;52.018;5.584;2023-05-07T13:35:26;24.40;57.90
67769;DHT22;54569;52.018;5.584;2023-05-07T13:37:52;24.40;57.90
67769;DHT22;54569;52.018;5.584;2023-05-07T13:40:18;24.30;58.20
67769;DHT22;54569;52.018;5.584;2023-05-07T13:42:44;24.30;58.00
67769;DHT22;54569;52.018;5.584;2023-05-07T13:45:10;24.20;58.60
67769;DHT22;54569;52.018;5.584;2023-05-07T13:47:40;24.00;59.00
67769;DHT22;54569;52.018;5.584;2023-05-07T13:50:07;23.90;59.50
67769;DHT22;54569;52.018;5.584;2023-05-07T13:52:33;23.80;59.60
67769;DHT22;54569;52.018;5.584;2023-05-07T13:54:59;23.80;59.40
67769;DHT22;54569;52.018;5.584;2023-05-07T13:57:25;23.80;59.40
67769;DHT22;54569;52.018;5.584;2023-05-07T13:59:50;23.80;60.10
67769;DHT22;54569;52.018;5.584;2023-05-07T14:02:16;23.80;59.20
67769;DHT22;54569;52.018;5.584;2023-05-07T14:04:42;23.70;59.10
67769;DHT22;54569;52.018;5.584;2023-05-07T14:07:07;23.60;58.70
67769;DHT22;54569;52.018;5.584;2023-05-07T14:09:33;23.70;58.70
67769;DHT22;54569;52.018;5.584;2023-05-07T14:11:59;23.80;59.40
67769;DHT22;54569;52.018;5.584;2023-05-07T14:14:25;23.70;59.30
67769;DHT22;54569;52.018;5.584;2023-05-07T14:16:51;23.70;59.60
67769;DHT22;54569;52.018;5.584;2023-05-07T14:19:17;23.70;59.50
67769;DHT22;54569;52.018;5.584;2023-05-07T14:21:45;23.60;58.60
67769;DHT22;54569;52.018;5.584;2023-05-07T14:24:11;23.60;59.80
67769;DHT22;54569;52.018;5.584;2023-05-07T14:26:37;23.60;59.70
67769;DHT22;54569;52.018;5.584;2023-05-07T14:29:03;23.60;60.00
67769;DHT22;54569;52.018;5.584;2023-05-07T14:31:29;23.60;60.10
67769;DHT22;54569;52.018;5.584;2023-05-07T14:33:54;23.50;60.50
67769;DHT22;54569;52.018;5.584;2023-05-07T14:36:20;23.40;60.60
67769;DHT22;54569;52.018;5.584;2023-05-07T14:38:47;23.40;61.40
67769;DHT22;54569;52.018;5.584;2023-05-07T14:41:13;23.30;61.00
67769;DHT22;54569;52.018;5.584;2023-05-07T14:43:40;23.30;61.10
67769;DHT22;54569;52.018;5.584;2023-05-07T14:46:06;23.30;61.20
67769;DHT22;54569;52.018;5.584;2023-05-07T14:48:31;23.30;61.00
67769;DHT22;54569;52.018;5.584;2023-05-07T14:51:00;23.30;60.80
67769;DHT22;54569;52.018;5.584;2023-05-07T14:53:26;23.30;60.70
67769;DHT22;54569;52.018;5.584;2023-05-07T14:55:51;23.10;61.00
67769;DHT22;54569;52.018;5.584;2023-05-07T14:58:17;23.00;61.40
67769;DHT22;54569;52.018;5.584;2023-05-07T15:00:43;23.00;61.50
67769;DHT22;54569;52.018;5.584;2023-05-07T15:03:10;23.00;61.70
67769;DHT22;54569;52.018;5.584;2023-05-07T15:05:36;23.00;61.90
67769;DHT22;54569;52.018;5.584;2023-05-07T15:08:02;22.90;62.10
67769;DHT22;54569;52.018;5.584;2023-05-07T15:10:28;22.90;62.20
67769;DHT22;54569;52.018;5.584;2023-05-07T15:12:54;22.80;62.30
67769;DHT22;54569;52.018;5.584;2023-05-07T15:15:19;22.80;62.30
67769;DHT22;54569;52.018;5.584;2023-05-07T15:17:45;22.70;62.60
67769;DHT22;54569;52.018;5.584;2023-05-07T15:20:11;22.60;62.80
67769;DHT22;54569;52.018;5.584;2023-05-07T15:22:37;22.40;62.80
67769;DHT22;54569;52.018;5.584;2023-05-07T15:25:03;22.30;63.20
67769;DHT22;54569;52.018;5.584;2023-05-07T15:27:30;22.10;63.80
67769;DHT22;54569;52.018;5.584;2023-05-07T15:29:56;22.00;64.40
67769;DHT22;54569;52.018;5.584;2023-05-07T15:32:22;21.60;64.90
67769;DHT22;54569;52.018;5.584;2023-05-07T15:34:48;21.20;65.60
67769;DHT22;54569;52.018;5.584;2023-05-07T15:37:13;20.90;66.20
67769;DHT22;54569;52.018;5.584;2023-05-07T15:39:39;20.50;67.40
67769;DHT22;54569;52.018;5.584;2023-05-07T15:42:05;20.30;67.60